SKW6465 KFLG-KDFW
Flight info
| Callsign | SKW6465 |
|---|---|
| Flight time | N/A |
| Altitude | 39000 |
| Route | FLG1 OATES ABQ J72 TXO TURKI VKTRY2 |
| Aircraft | CRJ7/M-SDFGIRWY/S |
Departure
| Time | 2026-04-27 12:41 |
|---|---|
| Airport | Flagstaff Pulliam Airport (KFLG) |
Arrival
| Time | N/A |
|---|---|
| Airport | Dallas Fort Worth International Airport (KDFW) |
| Time | Latitude | Longitude | Altitude | Speed | Heading |
|---|---|---|---|---|---|
| 2026-04-27 12:34 | 35.13764 | -111.67478 | 7011 ft | 0 kts | 20° |
| 2026-04-27 12:35 | 35.13766 | -111.67477 | 7011 ft | 1 kts | 29° |
| 2026-04-27 12:36 | 35.13772 | -111.67465 | 7011 ft | 4 kts | 73° |
| 2026-04-27 12:36 | 35.13759 | -111.67407 | 7012 ft | 10 kts | 77° |
| 2026-04-27 12:36 | 35.13822 | -111.67327 | 7013 ft | 17 kts | 41° |
| 2026-04-27 12:36 | 35.13932 | -111.67210 | 7013 ft | 25 kts | 41° |
| 2026-04-27 12:37 | 35.14065 | -111.67068 | 7011 ft | 25 kts | 41° |
| 2026-04-27 12:37 | 35.14193 | -111.66933 | 7011 ft | 24 kts | 41° |
| 2026-04-27 12:37 | 35.14313 | -111.66804 | 7006 ft | 22 kts | 41° |
| 2026-04-27 12:37 | 35.14427 | -111.66682 | 7005 ft | 21 kts | 41° |
| 2026-04-27 12:38 | 35.14542 | -111.66559 | 7004 ft | 22 kts | 41° |
| 2026-04-27 12:38 | 35.14656 | -111.66438 | 6999 ft | 21 kts | 41° |
| 2026-04-27 12:38 | 35.14765 | -111.66323 | 7004 ft | 20 kts | 41° |
| 2026-04-27 12:38 | 35.14868 | -111.66214 | 7004 ft | 19 kts | 41° |
| 2026-04-27 12:39 | 35.14962 | -111.66113 | 6999 ft | 14 kts | 42° |
| 2026-04-27 12:39 | 35.14983 | -111.66023 | 7003 ft | 11 kts | 130° |
| 2026-04-27 12:39 | 35.14927 | -111.65986 | 7003 ft | 9 kts | 196° |
| 2026-04-27 12:39 | 35.14832 | -111.66074 | 6997 ft | 35 kts | 220° |
| 2026-04-27 12:40 | 35.14512 | -111.66411 | 6998 ft | 86 kts | 221° |
| 2026-04-27 12:40 | 35.13947 | -111.67013 | 7011 ft | 128 kts | 221° |
| 2026-04-27 12:40 | 35.13190 | -111.67824 | 7020 ft | 158 kts | 221° |
| 2026-04-27 12:40 | 35.12351 | -111.68738 | 7251 ft | 165 kts | 222° |
| 2026-04-27 12:41 | 35.11485 | -111.69714 | 7570 ft | 171 kts | 224° |
| 2026-04-27 12:41 | 35.10510 | -111.70490 | 8149 ft | 169 kts | 201° |
| 2026-04-27 12:41 | 35.09322 | -111.70610 | 8538 ft | 176 kts | 175° |
| 2026-04-27 12:41 | 35.08100 | -111.70341 | 8908 ft | 181 kts | 174° |
| 2026-04-27 12:42 | 35.06841 | -111.70059 | 9237 ft | 192 kts | 176° |
| 2026-04-27 12:42 | 35.05422 | -111.69837 | 9261 ft | 220 kts | 179° |
| 2026-04-27 12:42 | 35.03808 | -111.69686 | 9351 ft | 244 kts | 185° |
| 2026-04-27 12:42 | 35.02047 | -111.69585 | 9645 ft | 269 kts | 167° |
| 2026-04-27 12:43 | 35.00319 | -111.68500 | 10046 ft | 292 kts | 145° |
| 2026-04-27 12:43 | 34.99103 | -111.66458 | 10627 ft | 308 kts | 113° |
| 2026-04-27 12:43 | 34.98857 | -111.63841 | 11291 ft | 318 kts | 85° |
| 2026-04-27 12:43 | 34.99196 | -111.61160 | 11970 ft | 323 kts | 82° |
| 2026-04-27 12:44 | 34.99576 | -111.58376 | 12232 ft | 343 kts | 82° |
| 2026-04-27 12:44 | 34.99893 | -111.55416 | 12446 ft | 360 kts | 85° |
| 2026-04-27 12:44 | 35.00069 | -111.52309 | 12820 ft | 373 kts | 89° |
| 2026-04-27 12:44 | 35.00141 | -111.49169 | 13456 ft | 377 kts | 90° |
| 2026-04-27 12:45 | 35.00201 | -111.45910 | 14071 ft | 382 kts | 90° |
| 2026-04-27 12:45 | 35.00280 | -111.42653 | 14619 ft | 387 kts | 90° |
| 2026-04-27 12:45 | 35.00373 | -111.39400 | 15147 ft | 391 kts | 89° |
| 2026-04-27 12:45 | 35.00467 | -111.36063 | 15678 ft | 396 kts | 89° |
| 2026-04-27 12:46 | 35.00556 | -111.32684 | 16196 ft | 401 kts | 90° |
| 2026-04-27 12:46 | 35.00651 | -111.29222 | 16706 ft | 405 kts | 90° |
| 2026-04-27 12:46 | 35.00743 | -111.25812 | 17199 ft | 410 kts | 90° |
| 2026-04-27 12:46 | 35.00834 | -111.22317 | 17700 ft | 414 kts | 89° |
| 2026-04-27 12:47 | 35.00927 | -111.18790 | 18197 ft | 419 kts | 90° |
| 2026-04-27 12:47 | 35.01020 | -111.15220 | 18614 ft | 423 kts | 90° |
| 2026-04-27 12:47 | 35.01109 | -111.11622 | 19112 ft | 425 kts | 90° |
| 2026-04-27 12:47 | 35.01199 | -111.08006 | 19531 ft | 429 kts | 90° |
| 2026-04-27 12:48 | 35.01291 | -111.04349 | 19915 ft | 434 kts | 90° |
| 2026-04-27 12:48 | 35.01382 | -111.00652 | 20293 ft | 438 kts | 90° |
| 2026-04-27 12:48 | 35.01470 | -110.96920 | 20668 ft | 442 kts | 90° |
| 2026-04-27 12:48 | 35.01561 | -110.93150 | 21034 ft | 447 kts | 90° |
| 2026-04-27 12:49 | 35.01650 | -110.89344 | 21403 ft | 451 kts | 90° |
| 2026-04-27 12:49 | 35.01738 | -110.85502 | 21757 ft | 455 kts | 90° |
| 2026-04-27 12:49 | 35.01827 | -110.81624 | 22100 ft | 460 kts | 90° |
| 2026-04-27 12:49 | 35.01915 | -110.77704 | 22368 ft | 466 kts | 91° |
| 2026-04-27 12:50 | 35.01999 | -110.73735 | 22688 ft | 470 kts | 90° |
| 2026-04-27 12:50 | 35.02089 | -110.69733 | 23010 ft | 474 kts | 91° |
| 2026-04-27 12:50 | 35.02175 | -110.65699 | 23322 ft | 478 kts | 91° |
| 2026-04-27 12:50 | 35.02263 | -110.61632 | 23544 ft | 482 kts | 91° |
| 2026-04-27 12:51 | 35.02348 | -110.57532 | 23807 ft | 485 kts | 91° |
| 2026-04-27 12:51 | 35.02430 | -110.53402 | 24075 ft | 488 kts | 91° |
| 2026-04-27 12:51 | 35.02515 | -110.49249 | 24333 ft | 491 kts | 91° |
| 2026-04-27 12:51 | 35.02600 | -110.45069 | 24552 ft | 495 kts | 91° |
| 2026-04-27 12:52 | 35.02683 | -110.40861 | 24802 ft | 498 kts | 91° |
| 2026-04-27 12:52 | 35.02765 | -110.36626 | 25049 ft | 501 kts | 91° |
| 2026-04-27 12:52 | 35.02845 | -110.32367 | 25294 ft | 503 kts | 91° |
| 2026-04-27 12:52 | 35.02925 | -110.28081 | 25542 ft | 506 kts | 91° |
| 2026-04-27 12:53 | 35.03080 | -110.19451 | 26005 ft | 512 kts | 91° |
| 2026-04-27 12:53 | 35.03156 | -110.15102 | 26229 ft | 514 kts | 91° |
| 2026-04-27 12:53 | 35.03231 | -110.10730 | 26384 ft | 518 kts | 91° |
| 2026-04-27 12:54 | 35.03304 | -110.06324 | 26590 ft | 521 kts | 91° |
| 2026-04-27 12:54 | 35.03378 | -110.01897 | 26820 ft | 523 kts | 91° |
| 2026-04-27 12:54 | 35.03450 | -109.97450 | 27044 ft | 525 kts | 91° |
| 2026-04-27 12:54 | 35.03493 | -109.94493 | 27186 ft | 527 kts | 91° |